sensor_id;sensor_type;location;lat;lon;timestamp;temperature;humidity
11214;DHT22;5664;48.606;13.456;2023-02-08T00:01:42;17.50;59.80
11214;DHT22;5664;48.606;13.456;2023-02-08T00:04:08;17.50;59.80
11214;DHT22;5664;48.606;13.456;2023-02-08T00:06:33;17.50;59.80
11214;DHT22;5664;48.606;13.456;2023-02-08T00:08:59;17.60;59.80
11214;DHT22;5664;48.606;13.456;2023-02-08T00:11:25;17.50;59.80
11214;DHT22;5664;48.606;13.456;2023-02-08T00:13:51;17.60;59.80
11214;DHT22;5664;48.606;13.456;2023-02-08T00:16:16;17.40;59.70
11214;DHT22;5664;48.606;13.456;2023-02-08T00:18:42;17.60;59.80
11214;DHT22;5664;48.606;13.456;2023-02-08T00:21:09;17.50;59.80
11214;DHT22;5664;48.606;13.456;2023-02-08T00:23:35;17.50;59.80
11214;DHT22;5664;48.606;13.456;2023-02-08T00:26:01;17.50;59.70
11214;DHT22;5664;48.606;13.456;2023-02-08T00:28:27;17.50;59.80
11214;DHT22;5664;48.606;13.456;2023-02-08T00:30:52;17.50;59.70
11214;DHT22;5664;48.606;13.456;2023-02-08T00:33:17;17.50;59.70
11214;DHT22;5664;48.606;13.456;2023-02-08T00:35:43;17.60;59.80
11214;DHT22;5664;48.606;13.456;2023-02-08T00:38:08;17.50;59.70
11214;DHT22;5664;48.606;13.456;2023-02-08T00:40:34;17.40;59.70
11214;DHT22;5664;48.606;13.456;2023-02-08T00:42:59;17.40;59.60
11214;DHT22;5664;48.606;13.456;2023-02-08T00:45:25;17.40;59.70
11214;DHT22;5664;48.606;13.456;2023-02-08T00:47:50;17.40;59.60
11214;DHT22;5664;48.606;13.456;2023-02-08T00:50:16;17.40;59.60
11214;DHT22;5664;48.606;13.456;2023-02-08T00:52:41;17.40;59.60
11214;DHT22;5664;48.606;13.456;2023-02-08T00:55:07;17.50;59.70
11214;DHT22;5664;48.606;13.456;2023-02-08T00:57:32;17.40;59.60
11214;DHT22;5664;48.606;13.456;2023-02-08T00:59:58;17.40;59.70
11214;DHT22;5664;48.606;13.456;2023-02-08T01:02:23;17.40;59.60
11214;DHT22;5664;48.606;13.456;2023-02-08T01:04:49;17.40;59.60
11214;DHT22;5664;48.606;13.456;2023-02-08T01:07:14;17.50;59.70
11214;DHT22;5664;48.606;13.456;2023-02-08T01:09:40;17.40;59.60
11214;DHT22;5664;48.606;13.456;2023-02-08T01:12:05;17.30;59.60
11214;DHT22;5664;48.606;13.456;2023-02-08T01:14:31;17.40;59.60
11214;DHT22;5664;48.606;13.456;2023-02-08T01:16:56;17.40;59.60
11214;DHT22;5664;48.606;13.456;2023-02-08T01:19:22;17.40;59.60
11214;DHT22;5664;48.606;13.456;2023-02-08T01:21:47;17.40;59.60
11214;DHT22;5664;48.606;13.456;2023-02-08T01:24:16;17.40;59.60
11214;DHT22;5664;48.606;13.456;2023-02-08T01:26:41;17.40;59.60
11214;DHT22;5664;48.606;13.456;2023-02-08T01:29:07;17.40;59.60
11214;DHT22;5664;48.606;13.456;2023-02-08T01:31:34;17.50;59.70
11214;DHT22;5664;48.606;13.456;2023-02-08T01:34:00;17.30;59.60
11214;DHT22;5664;48.606;13.456;2023-02-08T01:36:26;17.40;59.60
11214;DHT22;5664;48.606;13.456;2023-02-08T01:38:52;17.30;59.50
11214;DHT22;5664;48.606;13.456;2023-02-08T01:41:31;17.30;59.50
11214;DHT22;5664;48.606;13.456;2023-02-08T01:46:22;17.40;59.60
11214;DHT22;5664;48.606;13.456;2023-02-08T01:48:47;17.30;59.60
11214;DHT22;5664;48.606;13.456;2023-02-08T01:51:18;17.30;59.60
11214;DHT22;5664;48.606;13.456;2023-02-08T01:53:44;17.30;59.60
11214;DHT22;5664;48.606;13.456;2023-02-08T01:56:14;17.30;59.60
11214;DHT22;5664;48.606;13.456;2023-02-08T01:58:43;17.30;59.50
11214;DHT22;5664;48.606;13.456;2023-02-08T02:01:10;17.30;59.50
11214;DHT22;5664;48.606;13.456;2023-02-08T02:03:36;17.40;59.60
11214;DHT22;5664;48.606;13.456;2023-02-08T02:06:02;17.20;59.50
11214;DHT22;5664;48.606;13.456;2023-02-08T02:08:30;17.20;59.50
11214;DHT22;5664;48.606;13.456;2023-02-08T02:10:55;17.20;60.10
11214;DHT22;5664;48.606;13.456;2023-02-08T02:13:21;17.30;59.50
11214;DHT22;5664;48.606;13.456;2023-02-08T02:15:48;17.10;59.50
11214;DHT22;5664;48.606;13.456;2023-02-08T02:18:17;17.20;59.50
11214;DHT22;5664;48.606;13.456;2023-02-08T02:38:35;17.20;59.50
11214;DHT22;5664;48.606;13.456;2023-02-08T02:41:16;17.20;59.50
11214;DHT22;5664;48.606;13.456;2023-02-08T02:44:03;17.20;59.50
11214;DHT22;5664;48.606;13.456;2023-02-08T02:46:37;17.10;59.40
11214;DHT22;5664;48.606;13.456;2023-02-08T02:49:07;17.10;59.40
11214;DHT22;5664;48.606;13.456;2023-02-08T02:54:06;17.10;59.40
11214;DHT22;5664;48.606;13.456;2023-02-08T02:56:36;17.20;59.40
11214;DHT22;5664;48.606;13.456;2023-02-08T02:59:05;17.10;59.30
11214;DHT22;5664;48.606;13.456;2023-02-08T03:01:31;17.20;59.30
11214;DHT22;5664;48.606;13.456;2023-02-08T03:03:56;17.10;59.20
11214;DHT22;5664;48.606;13.456;2023-02-08T03:09:06;17.10;59.20
11214;DHT22;5664;48.606;13.456;2023-02-08T03:11:34;17.10;59.20
11214;DHT22;5664;48.606;13.456;2023-02-08T03:16:46;17.20;59.20
11214;DHT22;5664;48.606;13.456;2023-02-08T03:19:21;17.30;59.20
11214;DHT22;5664;48.606;13.456;2023-02-08T03:24:39;17.20;59.10
11214;DHT22;5664;48.606;13.456;2023-02-08T03:29:36;17.20;59.10
11214;DHT22;5664;48.606;13.456;2023-02-08T03:32:11;17.20;59.10
11214;DHT22;5664;48.606;13.456;2023-02-08T03:34:46;17.20;59.10
11214;DHT22;5664;48.606;13.456;2023-02-08T03:39:47;17.20;59.00
11214;DHT22;5664;48.606;13.456;2023-02-08T03:42:18;17.10;59.00
11214;DHT22;5664;48.606;13.456;2023-02-08T03:44:48;17.10;59.00
11214;DHT22;5664;48.606;13.456;2023-02-08T03:47:16;17.20;59.00
11214;DHT22;5664;48.606;13.456;2023-02-08T03:49:43;17.10;58.90
11214;DHT22;5664;48.606;13.456;2023-02-08T03:52:09;17.20;58.90
11214;DHT22;5664;48.606;13.456;2023-02-08T03:54:37;17.20;59.00
11214;DHT22;5664;48.606;13.456;2023-02-08T04:00:09;17.10;58.80
11214;DHT22;5664;48.606;13.456;2023-02-08T04:02:36;17.10;58.80
11214;DHT22;5664;48.606;13.456;2023-02-08T04:05:03;17.20;58.80
11214;DHT22;5664;48.606;13.456;2023-02-08T04:07:28;17.10;58.80
11214;DHT22;5664;48.606;13.456;2023-02-08T04:09:54;17.10;58.70
11214;DHT22;5664;48.606;13.456;2023-02-08T04:12:19;17.00;58.90
11214;DHT22;5664;48.606;13.456;2023-02-08T04:14:45;17.00;58.70
11214;DHT22;5664;48.606;13.456;2023-02-08T04:17:10;17.10;58.70
11214;DHT22;5664;48.606;13.456;2023-02-08T04:19:36;17.10;59.00
11214;DHT22;5664;48.606;13.456;2023-02-08T04:22:01;17.10;58.70
11214;DHT22;5664;48.606;13.456;2023-02-08T04:24:27;17.10;58.70
11214;DHT22;5664;48.606;13.456;2023-02-08T04:26:52;17.10;58.60
11214;DHT22;5664;48.606;13.456;2023-02-08T04:29:18;17.00;58.60
11214;DHT22;5664;48.606;13.456;2023-02-08T04:31:43;17.10;58.70
11214;DHT22;5664;48.606;13.456;2023-02-08T04:34:08;17.10;58.60
11214;DHT22;5664;48.606;13.456;2023-02-08T04:36:34;17.00;58.50
11214;DHT22;5664;48.606;13.456;2023-02-08T04:38:59;17.20;58.70
11214;DHT22;5664;48.606;13.456;2023-02-08T04:41:25;16.90;58.50
11214;DHT22;5664;48.606;13.456;2023-02-08T04:43:50;17.10;58.60
11214;DHT22;5664;48.606;13.456;2023-02-08T04:46:16;17.00;58.60
11214;DHT22;5664;48.606;13.456;2023-02-08T04:48:41;17.00;58.60
11214;DHT22;5664;48.606;13.456;2023-02-08T04:51:07;17.10;58.60
11214;DHT22;5664;48.606;13.456;2023-02-08T04:53:32;17.10;58.60
11214;DHT22;5664;48.606;13.456;2023-02-08T04:55:58;17.10;58.60
11214;DHT22;5664;48.606;13.456;2023-02-08T04:58:23;17.00;58.60
11214;DHT22;5664;48.606;13.456;2023-02-08T05:00:48;17.00;58.60
11214;DHT22;5664;48.606;13.456;2023-02-08T05:03:14;17.00;58.60
11214;DHT22;5664;48.606;13.456;2023-02-08T05:05:39;17.00;58.50
11214;DHT22;5664;48.606;13.456;2023-02-08T05:08:05;17.00;58.50
11214;DHT22;5664;48.606;13.456;2023-02-08T05:10:30;17.10;58.60
11214;DHT22;5664;48.606;13.456;2023-02-08T05:12:56;17.00;58.60
11214;DHT22;5664;48.606;13.456;2023-02-08T05:15:22;17.00;58.60
11214;DHT22;5664;48.606;13.456;2023-02-08T05:17:47;17.10;58.60
11214;DHT22;5664;48.606;13.456;2023-02-08T05:20:13;17.00;58.60
11214;DHT22;5664;48.606;13.456;2023-02-08T05:22:38;17.10;58.70
11214;DHT22;5664;48.606;13.456;2023-02-08T05:25:04;17.10;58.80
11214;DHT22;5664;48.606;13.456;2023-02-08T05:27:29;17.00;58.80
11214;DHT22;5664;48.606;13.456;2023-02-08T05:29:55;17.00;58.80
11214;DHT22;5664;48.606;13.456;2023-02-08T05:32:20;17.00;58.90
11214;DHT22;5664;48.606;13.456;2023-02-08T05:34:46;17.00;58.90
11214;DHT22;5664;48.606;13.456;2023-02-08T05:37:12;17.00;58.90
11214;DHT22;5664;48.606;13.456;2023-02-08T05:39:38;16.90;58.80
11214;DHT22;5664;48.606;13.456;2023-02-08T05:42:04;17.00;58.90
11214;DHT22;5664;48.606;13.456;2023-02-08T05:44:29;17.00;59.00
11214;DHT22;5664;48.606;13.456;2023-02-08T05:46:55;17.00;59.00
11214;DHT22;5664;48.606;13.456;2023-02-08T05:49:20;16.90;59.00
11214;DHT22;5664;48.606;13.456;2023-02-08T05:51:45;17.00;59.00
11214;DHT22;5664;48.606;13.456;2023-02-08T05:54:11;16.90;59.00
11214;DHT22;5664;48.606;13.456;2023-02-08T05:56:36;17.00;59.10
11214;DHT22;5664;48.606;13.456;2023-02-08T05:59:02;17.00;59.10
11214;DHT22;5664;48.606;13.456;2023-02-08T06:01:28;17.00;59.10
11214;DHT22;5664;48.606;13.456;2023-02-08T06:03:53;17.00;59.10
11214;DHT22;5664;48.606;13.456;2023-02-08T06:06:19;17.00;59.10
11214;DHT22;5664;48.606;13.456;2023-02-08T06:08:45;17.00;59.10
11214;DHT22;5664;48.606;13.456;2023-02-08T06:11:10;17.00;59.10
11214;DHT22;5664;48.606;13.456;2023-02-08T06:13:36;16.80;59.30
11214;DHT22;5664;48.606;13.456;2023-02-08T06:16:03;16.90;59.10
11214;DHT22;5664;48.606;13.456;2023-02-08T06:18:29;17.00;59.10
11214;DHT22;5664;48.606;13.456;2023-02-08T06:20:54;17.10;59.20
11214;DHT22;5664;48.606;13.456;2023-02-08T06:23:20;16.90;59.10
11214;DHT22;5664;48.606;13.456;2023-02-08T06:25:45;16.90;59.10
11214;DHT22;5664;48.606;13.456;2023-02-08T06:28:11;16.90;59.10
11214;DHT22;5664;48.606;13.456;2023-02-08T06:30:36;16.90;59.10
11214;DHT22;5664;48.606;13.456;2023-02-08T06:33:02;16.90;59.10
11214;DHT22;5664;48.606;13.456;2023-02-08T06:35:28;16.90;59.10
11214;DHT22;5664;48.606;13.456;2023-02-08T06:37:53;16.90;59.10
11214;DHT22;5664;48.606;13.456;2023-02-08T06:40:19;16.90;59.10
11214;DHT22;5664;48.606;13.456;2023-02-08T06:42:47;16.80;59.10
11214;DHT22;5664;48.606;13.456;2023-02-08T06:45:13;16.90;59.10
11214;DHT22;5664;48.606;13.456;2023-02-08T06:47:38;16.90;59.10
11214;DHT22;5664;48.606;13.456;2023-02-08T06:50:04;16.90;59.10
11214;DHT22;5664;48.606;13.456;2023-02-08T06:52:30;16.90;59.20
11214;DHT22;5664;48.606;13.456;2023-02-08T06:54:56;16.80;59.10
11214;DHT22;5664;48.606;13.456;2023-02-08T06:57:21;16.90;59.20
11214;DHT22;5664;48.606;13.456;2023-02-08T06:59:47;17.00;59.20
11214;DHT22;5664;48.606;13.456;2023-02-08T07:02:13;16.90;59.10
11214;DHT22;5664;48.606;13.456;2023-02-08T07:04:39;16.90;59.10
11214;DHT22;5664;48.606;13.456;2023-02-08T07:07:04;16.90;59.10
11214;DHT22;5664;48.606;13.456;2023-02-08T07:09:31;16.90;59.10
11214;DHT22;5664;48.606;13.456;2023-02-08T07:11:57;16.80;59.00
11214;DHT22;5664;48.606;13.456;2023-02-08T07:14:22;16.90;59.00
11214;DHT22;5664;48.606;13.456;2023-02-08T07:16:48;16.90;59.00
11214;DHT22;5664;48.606;13.456;2023-02-08T07:19:13;16.90;59.00
11214;DHT22;5664;48.606;13.456;2023-02-08T07:21:38;17.00;58.90
11214;DHT22;5664;48.606;13.456;2023-02-08T07:24:04;17.10;59.00
11214;DHT22;5664;48.606;13.456;2023-02-08T07:26:29;16.90;58.80
11214;DHT22;5664;48.606;13.456;2023-02-08T07:28:56;17.00;58.90
11214;DHT22;5664;48.606;13.456;2023-02-08T07:31:22;17.00;58.90
11214;DHT22;5664;48.606;13.456;2023-02-08T07:33:47;17.00;58.80
11214;DHT22;5664;48.606;13.456;2023-02-08T07:36:13;16.90;58.80
11214;DHT22;5664;48.606;13.456;2023-02-08T07:38:39;16.90;58.80
11214;DHT22;5664;48.606;13.456;2023-02-08T07:41:09;16.90;58.70
11214;DHT22;5664;48.606;13.456;2023-02-08T07:43:35;17.00;58.80
11214;DHT22;5664;48.606;13.456;2023-02-08T07:46:05;17.00;58.80
11214;DHT22;5664;48.606;13.456;2023-02-08T07:48:31;17.00;58.80
11214;DHT22;5664;48.606;13.456;2023-02-08T07:50:57;17.00;58.80
11214;DHT22;5664;48.606;13.456;2023-02-08T07:53:22;17.00;58.70
11214;DHT22;5664;48.606;13.456;2023-02-08T07:55:47;17.00;58.80
11214;DHT22;5664;48.606;13.456;2023-02-08T07:58:13;17.00;58.70
11214;DHT22;5664;48.606;13.456;2023-02-08T08:00:38;17.10;58.80
11214;DHT22;5664;48.606;13.456;2023-02-08T08:03:04;17.00;58.80
11214;DHT22;5664;48.606;13.456;2023-02-08T08:05:30;17.00;58.70
11214;DHT22;5664;48.606;13.456;2023-02-08T08:07:55;17.00;58.80
11214;DHT22;5664;48.606;13.456;2023-02-08T08:10:21;17.10;58.80
11214;DHT22;5664;48.606;13.456;2023-02-08T08:12:47;17.10;58.80
11214;DHT22;5664;48.606;13.456;2023-02-08T08:15:18;17.00;58.80
11214;DHT22;5664;48.606;13.456;2023-02-08T08:17:44;17.00;58.80
11214;DHT22;5664;48.606;13.456;2023-02-08T08:20:09;17.00;58.80
11214;DHT22;5664;48.606;13.456;2023-02-08T08:22:35;17.00;58.80
11214;DHT22;5664;48.606;13.456;2023-02-08T08:25:00;17.10;58.80
11214;DHT22;5664;48.606;13.456;2023-02-08T08:27:26;16.90;58.70
11214;DHT22;5664;48.606;13.456;2023-02-08T08:29:51;17.10;58.80
11214;DHT22;5664;48.606;13.456;2023-02-08T08:32:17;17.00;58.80
11214;DHT22;5664;48.606;13.456;2023-02-08T08:34:42;17.10;58.80
11214;DHT22;5664;48.606;13.456;2023-02-08T08:37:08;17.00;58.70
11214;DHT22;5664;48.606;13.456;2023-02-08T08:39:33;17.10;58.60
11214;DHT22;5664;48.606;13.456;2023-02-08T08:42:00;17.10;58.40
11214;DHT22;5664;48.606;13.456;2023-02-08T08:44:25;17.10;58.20
11214;DHT22;5664;48.606;13.456;2023-02-08T08:46:54;17.10;58.10
11214;DHT22;5664;48.606;13.456;2023-02-08T08:49:21;17.10;58.00
11214;DHT22;5664;48.606;13.456;2023-02-08T08:51:47;17.10;57.90
11214;DHT22;5664;48.606;13.456;2023-02-08T08:54:12;17.10;57.70
11214;DHT22;5664;48.606;13.456;2023-02-08T08:56:38;17.10;57.70
11214;DHT22;5664;48.606;13.456;2023-02-08T08:59:03;17.10;57.60
11214;DHT22;5664;48.606;13.456;2023-02-08T09:01:29;17.10;57.60
11214;DHT22;5664;48.606;13.456;2023-02-08T09:03:54;17.10;57.50
11214;DHT22;5664;48.606;13.456;2023-02-08T09:06:20;17.10;57.50
11214;DHT22;5664;48.606;13.456;2023-02-08T09:08:45;17.10;57.40
11214;DHT22;5664;48.606;13.456;2023-02-08T09:11:11;17.10;57.40
11214;DHT22;5664;48.606;13.456;2023-02-08T09:13:38;17.10;57.40
11214;DHT22;5664;48.606;13.456;2023-02-08T09:16:04;17.10;57.40
11214;DHT22;5664;48.606;13.456;2023-02-08T09:18:30;17.20;57.40
11214;DHT22;5664;48.606;13.456;2023-02-08T09:20:55;17.10;57.30
11214;DHT22;5664;48.606;13.456;2023-02-08T09:23:21;17.10;57.30
11214;DHT22;5664;48.606;13.456;2023-02-08T09:25:46;16.90;57.20
11214;DHT22;5664;48.606;13.456;2023-02-08T09:28:12;17.10;57.20
11214;DHT22;5664;48.606;13.456;2023-02-08T09:30:37;17.10;57.20
11214;DHT22;5664;48.606;13.456;2023-02-08T09:33:02;17.10;57.20
11214;DHT22;5664;48.606;13.456;2023-02-08T09:35:28;17.10;57.30
11214;DHT22;5664;48.606;13.456;2023-02-08T09:37:53;17.10;57.20
11214;DHT22;5664;48.606;13.456;2023-02-08T09:40:21;17.10;57.30
11214;DHT22;5664;48.606;13.456;2023-02-08T09:42:49;17.10;57.30
11214;DHT22;5664;48.606;13.456;2023-02-08T09:47:48;17.10;57.30
11214;DHT22;5664;48.606;13.456;2023-02-08T09:50:34;17.00;57.30
11214;DHT22;5664;48.606;13.456;2023-02-08T09:53:15;17.10;57.30
11214;DHT22;5664;48.606;13.456;2023-02-08T10:00:47;17.10;57.30
11214;DHT22;5664;48.606;13.456;2023-02-08T10:05:52;17.00;57.20
11214;DHT22;5664;48.606;13.456;2023-02-08T10:08:18;17.00;57.10
11214;DHT22;5664;48.606;13.456;2023-02-08T10:10:54;17.00;57.20
11214;DHT22;5664;48.606;13.456;2023-02-08T10:16:10;17.00;57.10
11214;DHT22;5664;48.606;13.456;2023-02-08T10:18:41;17.00;57.10
11214;DHT22;5664;48.606;13.456;2023-02-08T10:21:28;17.00;57.10
11214;DHT22;5664;48.606;13.456;2023-02-08T10:24:17;17.00;57.10
11214;DHT22;5664;48.606;13.456;2023-02-08T10:34:44;17.10;57.20
11214;DHT22;5664;48.606;13.456;2023-02-08T10:37:14;17.00;57.10
11214;DHT22;5664;48.606;13.456;2023-02-08T10:39:40;17.00;57.50
11214;DHT22;5664;48.606;13.456;2023-02-08T10:42:11;16.90;57.00
11214;DHT22;5664;48.606;13.456;2023-02-08T10:49:37;17.00;57.00
11214;DHT22;5664;48.606;13.456;2023-02-08T10:52:05;17.00;57.00
11214;DHT22;5664;48.606;13.456;2023-02-08T10:54:32;16.90;57.10
11214;DHT22;5664;48.606;13.456;2023-02-08T10:56:59;16.80;57.10
11214;DHT22;5664;48.606;13.456;2023-02-08T11:00:09;16.90;57.10
11214;DHT22;5664;48.606;13.456;2023-02-08T11:02:20;16.90;57.10
11214;DHT22;5664;48.606;13.456;2023-02-08T11:07:30;16.90;57.00
11214;DHT22;5664;48.606;13.456;2023-02-08T11:12:41;16.90;56.90
11214;DHT22;5664;48.606;13.456;2023-02-08T11:15:19;16.90;56.90
11214;DHT22;5664;48.606;13.456;2023-02-08T11:17:45;16.90;56.90
11214;DHT22;5664;48.606;13.456;2023-02-08T11:20:19;16.90;57.00
11214;DHT22;5664;48.606;13.456;2023-02-08T11:22:46;16.90;57.00
11214;DHT22;5664;48.606;13.456;2023-02-08T11:25:12;17.10;57.20
11214;DHT22;5664;48.606;13.456;2023-02-08T11:27:54;16.90;57.20
11214;DHT22;5664;48.606;13.456;2023-02-08T11:30:20;16.80;57.20
11214;DHT22;5664;48.606;13.456;2023-02-08T11:32:46;16.90;57.30
11214;DHT22;5664;48.606;13.456;2023-02-08T11:37:47;16.90;57.30
11214;DHT22;5664;48.606;13.456;2023-02-08T11:40:17;16.80;57.40
11214;DHT22;5664;48.606;13.456;2023-02-08T11:42:45;16.80;57.30
11214;DHT22;5664;48.606;13.456;2023-02-08T11:45:18;16.90;57.70
11214;DHT22;5664;48.606;13.456;2023-02-08T11:47:45;16.80;57.10
11214;DHT22;5664;48.606;13.456;2023-02-08T11:50:20;16.80;57.80
11214;DHT22;5664;48.606;13.456;2023-02-08T11:52:48;16.70;57.10
11214;DHT22;5664;48.606;13.456;2023-02-08T12:00:20;16.80;56.90
11214;DHT22;5664;48.606;13.456;2023-02-08T12:02:46;16.80;56.90
11214;DHT22;5664;48.606;13.456;2023-02-08T12:05:12;16.80;56.90
11214;DHT22;5664;48.606;13.456;2023-02-08T12:07:48;16.80;56.80
11214;DHT22;5664;48.606;13.456;2023-02-08T12:18:27;16.80;57.10
11214;DHT22;5664;48.606;13.456;2023-02-08T12:20:45;16.80;57.80
11214;DHT22;5664;48.606;13.456;2023-02-08T12:23:21;16.80;57.30
11214;DHT22;5664;48.606;13.456;2023-02-08T12:33:41;16.80;57.60
11214;DHT22;5664;48.606;13.456;2023-02-08T12:41:31;16.70;57.80
11214;DHT22;5664;48.606;13.456;2023-02-08T12:49:19;16.70;57.70
11214;DHT22;5664;48.606;13.456;2023-02-08T12:51:52;16.70;57.80
11214;DHT22;5664;48.606;13.456;2023-02-08T12:56:52;16.70;57.90
11214;DHT22;5664;48.606;13.456;2023-02-08T12:59:27;16.70;58.00
11214;DHT22;5664;48.606;13.456;2023-02-08T13:01:56;16.70;58.00
11214;DHT22;5664;48.606;13.456;2023-02-08T13:04:31;16.70;58.20
11214;DHT22;5664;48.606;13.456;2023-02-08T13:07:06;16.70;58.30
11214;DHT22;5664;48.606;13.456;2023-02-08T13:09:37;16.70;58.30
11214;DHT22;5664;48.606;13.456;2023-02-08T13:12:13;16.70;58.30
11214;DHT22;5664;48.606;13.456;2023-02-08T13:14:47;16.70;58.40
11214;DHT22;5664;48.606;13.456;2023-02-08T13:17:15;15.80;57.90
11214;DHT22;5664;48.606;13.456;2023-02-08T13:22:14;16.70;57.50
11214;DHT22;5664;48.606;13.456;2023-02-08T13:24:41;16.60;57.60
11214;DHT22;5664;48.606;13.456;2023-02-08T13:27:09;15.90;57.50
11214;DHT22;5664;48.606;13.456;2023-02-08T13:29:39;16.60;57.90
11214;DHT22;5664;48.606;13.456;2023-02-08T13:32:06;16.60;57.80
11214;DHT22;5664;48.606;13.456;2023-02-08T13:34:35;16.60;57.90
11214;DHT22;5664;48.606;13.456;2023-02-08T13:37:03;16.50;58.40
11214;DHT22;5664;48.606;13.456;2023-02-08T13:39:42;16.60;58.80
11214;DHT22;5664;48.606;13.456;2023-02-08T13:42:22;16.60;59.00
11214;DHT22;5664;48.606;13.456;2023-02-08T13:44:52;16.60;58.80
11214;DHT22;5664;48.606;13.456;2023-02-08T13:49:51;16.60;58.60
11214;DHT22;5664;48.606;13.456;2023-02-08T13:53:00;16.50;58.20
11214;DHT22;5664;48.606;13.456;2023-02-08T13:57:51;16.50;58.20
11214;DHT22;5664;48.606;13.456;2023-02-08T14:00:21;16.50;58.10
11214;DHT22;5664;48.606;13.456;2023-02-08T14:02:57;16.50;57.90
11214;DHT22;5664;48.606;13.456;2023-02-08T14:05:32;16.50;57.70
11214;DHT22;5664;48.606;13.456;2023-02-08T14:07:58;16.50;57.60
11214;DHT22;5664;48.606;13.456;2023-02-08T14:13:29;16.50;57.60
11214;DHT22;5664;48.606;13.456;2023-02-08T14:15:47;16.50;57.60
11214;DHT22;5664;48.606;13.456;2023-02-08T14:18:33;16.40;57.60
11214;DHT22;5664;48.606;13.456;2023-02-08T14:21:00;16.50;57.70
11214;DHT22;5664;48.606;13.456;2023-02-08T14:23:26;16.50;57.60
11214;DHT22;5664;48.606;13.456;2023-02-08T14:25:54;16.40;57.60
11214;DHT22;5664;48.606;13.456;2023-02-08T14:30:53;16.50;57.80
11214;DHT22;5664;48.606;13.456;2023-02-08T14:33:20;16.40;57.90
11214;DHT22;5664;48.606;13.456;2023-02-08T14:35:49;16.40;58.10
11214;DHT22;5664;48.606;13.456;2023-02-08T14:40:54;16.50;58.50
11214;DHT22;5664;48.606;13.456;2023-02-08T14:50:40;16.90;58.10
11214;DHT22;5664;48.606;13.456;2023-02-08T14:53:15;17.00;58.30
11214;DHT22;5664;48.606;13.456;2023-02-08T14:55:55;17.10;57.70
11214;DHT22;5664;48.606;13.456;2023-02-08T14:58:24;17.30;57.40
11214;DHT22;5664;48.606;13.456;2023-02-08T15:00:51;17.30;57.10
11214;DHT22;5664;48.606;13.456;2023-02-08T15:03:18;17.50;57.00
11214;DHT22;5664;48.606;13.456;2023-02-08T15:05:56;17.50;56.70
11214;DHT22;5664;48.606;13.456;2023-02-08T15:08:25;17.70;56.60
11214;DHT22;5664;48.606;13.456;2023-02-08T15:10:51;17.70;56.40
11214;DHT22;5664;48.606;13.456;2023-02-08T15:13:18;17.80;56.30
11214;DHT22;5664;48.606;13.456;2023-02-08T15:15:45;17.90;56.10
11214;DHT22;5664;48.606;13.456;2023-02-08T15:18:16;17.90;55.90
11214;DHT22;5664;48.606;13.456;2023-02-08T15:20:42;17.90;55.70
11214;DHT22;5664;48.606;13.456;2023-02-08T15:23:20;18.10;55.60
11214;DHT22;5664;48.606;13.456;2023-02-08T15:28:32;18.20;55.30
11214;DHT22;5664;48.606;13.456;2023-02-08T15:31:01;18.20;55.20
11214;DHT22;5664;48.606;13.456;2023-02-08T15:33:26;18.30;55.10
11214;DHT22;5664;48.606;13.456;2023-02-08T15:36:00;18.40;55.10
11214;DHT22;5664;48.606;13.456;2023-02-08T15:38:25;18.40;55.20
11214;DHT22;5664;48.606;13.456;2023-02-08T15:41:27;18.50;55.20
11214;DHT22;5664;48.606;13.456;2023-02-08T15:43:43;18.50;55.20
11214;DHT22;5664;48.606;13.456;2023-02-08T15:46:42;18.50;55.30
11214;DHT22;5664;48.606;13.456;2023-02-08T15:49:00;18.50;55.30
11214;DHT22;5664;48.606;13.456;2023-02-08T15:51:26;18.50;55.30
11214;DHT22;5664;48.606;13.456;2023-02-08T15:53:53;18.60;55.20
11214;DHT22;5664;48.606;13.456;2023-02-08T15:56:21;18.70;55.10
11214;DHT22;5664;48.606;13.456;2023-02-08T15:58:49;18.70;55.00
11214;DHT22;5664;48.606;13.456;2023-02-08T16:01:16;18.60;55.20
11214;DHT22;5664;48.606;13.456;2023-02-08T16:03:46;18.70;55.30
11214;DHT22;5664;48.606;13.456;2023-02-08T16:06:12;18.70;55.30
11214;DHT22;5664;48.606;13.456;2023-02-08T16:08:39;18.70;54.80
11214;DHT22;5664;48.606;13.456;2023-02-08T16:11:07;18.70;54.80
11214;DHT22;5664;48.606;13.456;2023-02-08T16:13:34;18.80;54.70
11214;DHT22;5664;48.606;13.456;2023-02-08T16:18:41;18.80;54.50
11214;DHT22;5664;48.606;13.456;2023-02-08T16:26:24;18.80;54.40
11214;DHT22;5664;48.606;13.456;2023-02-08T16:28:51;18.80;54.40
11214;DHT22;5664;48.606;13.456;2023-02-08T16:31:18;18.80;54.40
11214;DHT22;5664;48.606;13.456;2023-02-08T16:33:44;18.80;54.40
11214;DHT22;5664;48.606;13.456;2023-02-08T16:36:18;18.80;54.30
11214;DHT22;5664;48.606;13.456;2023-02-08T16:38:45;18.80;54.30
11214;DHT22;5664;48.606;13.456;2023-02-08T16:41:55;18.80;54.30
11214;DHT22;5664;48.606;13.456;2023-02-08T16:44:21;18.80;54.40
11214;DHT22;5664;48.606;13.456;2023-02-08T16:46:47;18.80;54.40
11214;DHT22;5664;48.606;13.456;2023-02-08T16:49:12;18.80;54.50
11214;DHT22;5664;48.606;13.456;2023-02-08T16:51:38;18.80;54.50
11214;DHT22;5664;48.606;13.456;2023-02-08T16:54:09;18.80;54.50
11214;DHT22;5664;48.606;13.456;2023-02-08T16:56:37;18.80;54.60
11214;DHT22;5664;48.606;13.456;2023-02-08T16:59:03;18.80;54.70
11214;DHT22;5664;48.606;13.456;2023-02-08T17:01:29;18.80;54.80
11214;DHT22;5664;48.606;13.456;2023-02-08T17:03:54;18.80;54.80
11214;DHT22;5664;48.606;13.456;2023-02-08T17:06:22;18.80;54.90
11214;DHT22;5664;48.606;13.456;2023-02-08T17:08:51;18.80;54.90
11214;DHT22;5664;48.606;13.456;2023-02-08T17:11:17;18.80;54.90
11214;DHT22;5664;48.606;13.456;2023-02-08T17:13:42;18.80;55.00
11214;DHT22;5664;48.606;13.456;2023-02-08T17:16:09;18.80;55.10
11214;DHT22;5664;48.606;13.456;2023-02-08T17:18:40;18.80;55.20
11214;DHT22;5664;48.606;13.456;2023-02-08T17:21:07;18.80;55.30
11214;DHT22;5664;48.606;13.456;2023-02-08T17:23:32;18.80;55.50
11214;DHT22;5664;48.606;13.456;2023-02-08T17:25:58;18.80;55.50
11214;DHT22;5664;48.606;13.456;2023-02-08T17:28:23;18.80;55.60
11214;DHT22;5664;48.606;13.456;2023-02-08T17:30:49;18.90;55.70
11214;DHT22;5664;48.606;13.456;2023-02-08T17:33:14;18.90;55.80
11214;DHT22;5664;48.606;13.456;2023-02-08T17:35:42;18.80;55.70
11214;DHT22;5664;48.606;13.456;2023-02-08T17:38:08;18.90;55.90
11214;DHT22;5664;48.606;13.456;2023-02-08T17:40:34;18.90;55.90
11214;DHT22;5664;48.606;13.456;2023-02-08T17:43:01;18.80;54.10
11214;DHT22;5664;48.606;13.456;2023-02-08T17:45:27;18.90;54.60
11214;DHT22;5664;48.606;13.456;2023-02-08T17:47:53;18.80;55.10
11214;DHT22;5664;48.606;13.456;2023-02-08T17:50:18;18.80;55.30
11214;DHT22;5664;48.606;13.456;2023-02-08T17:52:44;18.80;55.30
11214;DHT22;5664;48.606;13.456;2023-02-08T17:55:11;18.80;55.40